| time (UTC) | temp C | wind direction | speed KPH | gust KPH | rain 1hr cm | rain 24hr cm | rain mn cm | humidity % | barometer mb |
| 20260906093017 | 17 | 0.0 | 3.2 | 0.00 | 0.00 | 0.00 | 68 | 1013.8 | |
| 20260906090016 | 17 | 68 | 1.6 | 6.4 | 0.00 | 0.00 | 0.00 | 67 | 1013.5 |
| 20260906083016 | 17 | 45 | 1.6 | 6.4 | 0.00 | 0.00 | 0.00 | 67 | 1013.3 |
| 20260906080017 | 16 | 0.0 | 0.0 | 0.00 | 0.00 | 0.00 | 69 | 1013.3 | |
| 20260906073015 | 17 | 0.0 | 0.0 | 0.00 | 0.00 | 0.00 | 68 | 1013.2 | |
| 20260906070016 | 17 | 0.0 | 0.0 | 0.00 | 0.00 | 0.00 | 68 | 1013.2 | |
| 20260906063015 | 17 | 0.0 | 0.0 | 0.00 | 0.00 | 0.00 | 68 | 1013.2 | |
| 20260906060015 | 18 | 0.0 | 3.2 | 0.00 | 0.00 | 0.00 | 67 | 1013.2 | |
| 20260906053017 | 18 | 338 | 1.6 | 4.8 | 0.00 | 0.00 | 0.00 | 66 | 1013.3 |
| 20260906050017 | 18 | 0 | 1.6 | 4.8 | 0.00 | 0.00 | 0.00 | 67 | 1013.2 |
| 20260906043015 | 18 | 23 | 1.6 | 6.4 | 0.00 | 0.00 | 0.00 | 67 | 1013.2 |
| 20260906040021 | 18 | 0 | 1.6 | 4.8 | 0.00 | 0.00 | 0.00 | 67 | 1012.9 |
| 20260906033017 | 18 | 0.0 | 3.2 | 0.00 | 0.00 | 0.00 | 67 | 1013.0 | |
| 20260906030017 | 18 | 0.0 | 0.0 | 0.00 | 0.00 | 0.00 | 67 | 1012.8 | |
| 20260906023015 | 18 | 0.0 | 1.6 | 0.00 | 0.00 | 0.00 | 66 | 1012.8 | |
| 20260906020017 | 19 | 0.0 | 1.6 | 0.00 | 0.00 | 0.00 | 65 | 1012.6 | |
| 20260906013016 | 19 | 0.0 | 3.2 | 0.00 | 0.00 | 0.00 | 64 | 1012.5 | |
| 20260906010016 | 20 | 338 | 1.6 | 3.2 | 0.00 | 0.00 | 0.00 | 63 | 1012.3 |
| 20260906003015 | 21 | 0 | 1.6 | 6.4 | 0.00 | 0.00 | 0.00 | 60 | 1011.9 |
| 20260906000055 | 21 | 0.0 | 3.2 | 0.00 | 0.00 | 0.00 | 60 | 1011.9 | |
| 20260905233015 | 21 | 0.0 | 3.2 | 0.00 | 0.00 | 0.00 | 58 | 1011.6 | |
| 20260905230035 | 22 | 338 | 1.6 | 6.4 | 0.00 | 0.00 | 0.00 | 56 | 1011.4 |
| 20260905223015 | 22 | 0 | 3.2 | 9.7 | 0.00 | 0.00 | 0.00 | 54 | 1011.4 |
| 20260905220016 | 23 | 0 | 3.2 | 8.0 | 0.00 | 0.00 | 0.00 | 53 | 1011.1 |
| 20260905213015 | 23 | 23 | 3.2 | 11.3 | 0.00 | 0.00 | 0.00 | 50 | 1010.9 |
| 20260905210036 | 24 | 23 | 3.2 | 8.0 | 0.00 | 0.00 | 0.00 | 51 | 1010.6 |
| 20260905203015 | 25 | 45 | 3.2 | 12.9 | 0.00 | 0.00 | 0.00 | 47 | 1010.3 |
| 20260905200016 | 25 | 0 | 3.2 | 8.0 | 0.00 | 0.00 | 0.00 | 45 | 1010.4 |
| 20260905193015 | 25 | 45 | 3.2 | 9.7 | 0.00 | 0.00 | 0.00 | 46 | 1010.4 |
| 20260905190017 | 25 | 23 | 3.2 | 8.0 | 0.00 | 0.00 | 0.00 | 45 | 1010.5 |
| 20260905183018 | 25 | 45 | 3.2 | 9.7 | 0.00 | 0.00 | 0.00 | 47 | 1010.6 |
| 20260905180017 | 25 | 23 | 3.2 | 11.3 | 0.00 | 0.00 | 0.00 | 48 | 1010.7 |
| 20260905173017 | 25 | 23 | 3.2 | 8.0 | 0.00 | 0.00 | 0.00 | 51 | 1010.9 |
| 20260905170017 | 23 | 45 | 3.2 | 9.7 | 0.00 | 0.00 | 0.00 | 58 | 1011.1 |
| 20260905163017 | 23 | 23 | 3.2 | 12.9 | 0.00 | 0.00 | 0.00 | 57 | 1011.1 |
| 20260905160037 | 23 | 23 | 3.2 | 11.3 | 0.00 | 0.00 | 0.00 | 59 | 1011.1 |
| 20260905153036 | 22 | 0 | 3.2 | 9.7 | 0.00 | 0.00 | 0.00 | 61 | 1011.1 |
| 20260905150018 | 22 | 0 | 3.2 | 8.0 | 0.00 | 0.00 | 0.00 | 65 | 1011.3 |
| 20260905143037 | 21 | 23 | 3.2 | 8.0 | 0.00 | 0.00 | 0.00 | 65 | 1011.3 |
| 20260905140016 | 21 | 23 | 1.6 | 6.4 | 0.00 | 0.00 | 0.00 | 70 | 1011.1 |
| 20260905133016 | 20 | 0.0 | 3.2 | 0.00 | 0.00 | 0.00 | 71 | 1011.4 | |
| 20260905130016 | 18 | 0.0 | 3.2 | 0.00 | 0.00 | 0.00 | 76 | 1011.6 | |
| 20260905123017 | 17 | 0.0 | 0.0 | 0.00 | 0.00 | 0.00 | 81 | 1011.7 | |
| 20260905120037 | 16 | 0.0 | 1.6 | 0.00 | 0.00 | 0.00 | 82 | 1011.7 | |
| 20260905113037 | 15 | 0.0 | 0.0 | 0.00 | 0.00 | 0.00 | 83 | 1011.2 | |
| 20260905110039 | 14 | 0.0 | 0.0 | 0.00 | 0.00 | 0.00 | 83 | 1010.8 | |
| 20260905103016 | 14 | 0.0 | 0.0 | 0.00 | 0.00 | 0.00 | 82 | 1010.3 | |
| 20260905100017 | 14 | 0.0 | 0.0 | 0.00 | 0.00 | 0.00 | 82 | 1010.2 |